Time;durP1;ratioP1;P1;durP2;ratioP2;P2;SDS_P1;SDS_P2;PMS_P1;PMS_P2;Temp;Humidity;BMP_temperature;BMP_pressure;BME280_temperature;BME280_humidity;BME280_pressure;Samples;Min_cycle;Max_cycle;Signal;HPM_P1;HPM_P2
2024/03/23 00:00:54;;;;;;;12.63;4.28;;;11.20;99.90;;;;;;5015585;28;20070;-68
2024/03/23 00:06:17;;;;;;;12.50;3.95;;;11.10;99.90;;;;;;4794501;26;20490;-66
2024/03/23 00:09:06;;;;;;;13.57;4.45;;;11.10;99.90;;;;;;4973546;28;20039;-68
2024/03/23 00:11:52;;;;;;;9.77;3.08;;;11.10;99.90;;;;;;4953190;29;20201;-68
2024/03/23 00:14:40;;;;;;;6.85;3.13;;;11.00;99.90;;;;;;4970248;28;20044;-68
2024/03/23 00:17:26;;;;;;;11.50;3.80;;;11.00;99.90;;;;;;4954770;28;20055;-68
2024/03/23 00:20:13;;;;;;;12.43;3.40;;;11.00;99.90;;;;;;4967835;28;20046;-68
2024/03/23 00:23:01;;;;;;;10.00;3.03;;;11.00;99.90;;;;;;4970151;28;20049;-68
2024/03/23 00:25:48;;;;;;;12.07;3.90;;;10.90;99.90;;;;;;4984563;28;20050;-68
2024/03/23 00:28:35;;;;;;;9.98;3.35;;;10.90;99.90;;;;;;4978385;28;20039;-68
2024/03/23 00:31:22;;;;;;;11.88;3.58;;;11.00;99.90;;;;;;4970989;28;20058;-69
2024/03/23 00:34:09;;;;;;;12.93;4.00;;;11.00;99.90;;;;;;4970672;28;20389;-68
2024/03/23 00:36:56;;;;;;;9.90;3.50;;;11.00;99.90;;;;;;4979675;28;20058;-68
2024/03/23 00:39:43;;;;;;;11.20;3.25;;;11.00;99.90;;;;;;4967209;28;20039;-68
2024/03/23 00:42:29;;;;;;;11.10;3.35;;;10.90;99.90;;;;;;4970850;28;20047;-68
2024/03/23 00:45:16;;;;;;;12.38;3.95;;;10.90;99.90;;;;;;4953530;28;20061;-68
2024/03/23 00:48:03;;;;;;;9.57;3.17;;;10.90;99.90;;;;;;5016692;28;20036;-68
2024/03/23 00:50:50;;;;;;;10.43;2.90;;;11.00;99.90;;;;;;4977800;28;20123;-68
2024/03/23 00:53:37;;;;;;;14.30;3.60;;;11.00;99.90;;;;;;4974768;28;20049;-66
2024/03/23 00:56:24;;;;;;;12.38;3.22;;;11.00;99.90;;;;;;4954682;28;20093;-66
2024/03/23 00:59:09;;;;;;;10.68;3.55;;;11.00;99.90;;;;;;4980677;28;20649;-65
2024/03/23 01:01:55;;;;;;;7.85;2.83;;;11.00;99.90;;;;;;4969517;28;20411;-65
2024/03/23 01:04:41;;;;;;;9.70;2.88;;;11.00;99.90;;;;;;5046336;28;20512;-66
2024/03/23 01:07:27;;;;;;;11.77;3.60;;;11.00;99.90;;;;;;5024366;28;20411;-67
2024/03/23 01:10:13;;;;;;;10.88;3.17;;;11.00;99.90;;;;;;5013898;28;20050;-65
2024/03/23 01:12:59;;;;;;;9.30;2.75;;;11.00;99.90;;;;;;5022167;28;20041;-65
2024/03/23 01:15:49;;;;;;;10.02;3.33;;;10.90;99.90;;;;;;5021680;28;20041;-65
2024/03/23 01:18:35;;;;;;;12.73;4.13;;;10.90;99.90;;;;;;5024799;28;20037;-66
2024/03/23 01:21:20;;;;;;;9.00;3.30;;;10.80;99.90;;;;;;5019279;28;20068;-66
2024/03/23 01:24:08;;;;;;;13.88;4.22;;;10.80;99.90;;;;;;5028828;28;20049;-65
2024/03/23 01:26:55;;;;;;;15.02;4.78;;;10.80;99.90;;;;;;5013190;28;20390;-67
2024/03/23 01:29:41;;;;;;;9.52;4.05;;;10.90;99.90;;;;;;5012413;28;20052;-66
2024/03/23 01:32:27;;;;;;;11.75;3.53;;;10.90;99.90;;;;;;5018481;28;20046;-67
2024/03/23 01:35:13;;;;;;;14.80;3.30;;;10.90;99.90;;;;;;5021396;28;20042;-68
2024/03/23 01:37:58;;;;;;;13.98;4.20;;;11.00;99.90;;;;;;5032012;28;20041;-67
2024/03/23 01:40:44;;;;;;;9.65;3.53;;;10.90;99.90;;;;;;5023011;28;20041;-67
2024/03/23 01:43:31;;;;;;;8.98;4.05;;;11.00;99.90;;;;;;5013274;28;20046;-67
2024/03/23 01:46:17;;;;;;;10.52;3.40;;;10.90;99.90;;;;;;5017323;28;20045;-67
2024/03/23 01:49:05;;;;;;;12.23;3.72;;;10.90;99.90;;;;;;5012786;28;20088;-66
2024/03/23 01:51:51;;;;;;;13.27;5.40;;;10.90;99.90;;;;;;5018472;28;20050;-66
2024/03/23 01:54:37;;;;;;;13.70;4.70;;;10.90;99.90;;;;;;5012358;28;20033;-66
2024/03/23 01:57:24;;;;;;;11.75;4.90;;;10.80;99.90;;;;;;5033054;28;20037;-66
2024/03/23 02:00:12;;;;;;;14.45;4.13;;;10.80;99.90;;;;;;5032672;28;20037;-66
2024/03/23 02:02:58;;;;;;;13.63;5.03;;;10.80;99.90;;;;;;5019256;28;20045;-66
2024/03/23 02:05:44;;;;;;;16.08;4.68;;;10.80;99.90;;;;;;4983373;28;20678;-66
2024/03/23 02:08:30;;;;;;;14.10;4.18;;;10.90;99.90;;;;;;4990366;28;20112;-65
2024/03/23 02:11:16;;;;;;;12.30;4.45;;;10.80;99.90;;;;;;4950283;28;20138;-65
2024/03/23 02:14:02;;;;;;;11.80;4.53;;;10.80;99.90;;;;;;4984126;28;20032;-65
2024/03/23 02:16:48;;;;;;;16.10;4.53;;;10.80;99.90;;;;;;5027581;28;20414;-66
2024/03/23 02:19:34;;;;;;;12.55;3.55;;;10.80;99.90;;;;;;5003397;28;20039;-66
2024/03/23 02:22:20;;;;;;;21.17;6.15;;;10.90;99.90;;;;;;4958795;28;20089;-66
2024/03/23 02:25:07;;;;;;;17.15;5.88;;;10.90;99.90;;;;;;4950914;28;20043;-65
2024/03/23 02:27:54;;;;;;;10.55;4.53;;;11.00;99.90;;;;;;5049198;28;20505;-69
2024/03/23 02:30:39;;;;;;;13.95;4.53;;;11.00;99.90;;;;;;5071385;28;20045;-68
2024/03/23 02:33:25;;;;;;;10.55;4.20;;;11.00;99.90;;;;;;5039496;28;20132;-67
2024/03/23 02:36:11;;;;;;;11.35;4.65;;;11.00;99.90;;;;;;4957630;28;20068;-68
2024/03/23 02:38:57;;;;;;;11.73;4.60;;;11.00;99.90;;;;;;4954953;28;20047;-68
2024/03/23 02:41:43;;;;;;;15.15;4.90;;;11.00;99.90;;;;;;4969782;28;20047;-68
2024/03/23 02:44:29;;;;;;;21.02;6.07;;;11.00;99.90;;;;;;4962290;28;20040;-71
2024/03/23 02:47:15;;;;;;;13.73;5.05;;;11.00;99.90;;;;;;4960017;28;20077;-73
2024/03/23 02:50:01;;;;;;;12.23;4.30;;;11.10;99.90;;;;;;4950765;29;20043;-71
2024/03/23 02:52:48;;;;;;;14.82;4.88;;;11.10;99.90;;;;;;4950999;29;20457;-72
2024/03/23 02:55:34;;;;;;;11.25;4.18;;;11.10;99.90;;;;;;4964852;28;20047;-73
2024/03/23 02:58:20;;;;;;;14.07;4.38;;;11.10;99.90;;;;;;5000048;28;20047;-73
2024/03/23 03:01:05;;;;;;;16.98;6.28;;;11.10;99.90;;;;;;4990499;28;20043;-72
2024/03/23 03:03:51;;;;;;;12.02;4.38;;;11.10;99.90;;;;;;4972313;28;20059;-73
2024/03/23 03:06:40;;;;;;;12.30;4.43;;;11.20;99.90;;;;;;4959423;28;20130;-74
2024/03/23 03:09:26;;;;;;;13.27;5.75;;;11.10;99.90;;;;;;4986460;28;20040;-73
2024/03/23 03:12:12;;;;;;;14.52;4.85;;;11.10;99.90;;;;;;4979265;28;20083;-73
2024/03/23 03:14:59;;;;;;;11.65;4.00;;;11.10;99.90;;;;;;4978797;28;20107;-71
2024/03/23 03:17:45;;;;;;;13.00;4.50;;;11.10;99.90;;;;;;4979911;28;20106;-72
2024/03/23 03:20:31;;;;;;;16.15;4.93;;;11.10;99.90;;;;;;5018681;28;20037;-72
2024/03/23 03:23:17;;;;;;;18.08;5.32;;;11.10;99.90;;;;;;4970386;28;20044;-73
2024/03/23 03:26:04;;;;;;;13.63;4.85;;;11.10;99.90;;;;;;4939460;29;20028;-74
2024/03/23 03:28:51;;;;;;;10.27;3.47;;;11.10;99.90;;;;;;4959746;28;20046;-72
2024/03/23 03:31:37;;;;;;;9.27;3.95;;;11.10;99.90;;;;;;4965720;28;20043;-72
2024/03/23 03:34:23;;;;;;;6.93;3.45;;;11.10;99.90;;;;;;4962568;28;20054;-72
2024/03/23 03:37:09;;;;;;;11.95;3.92;;;11.10;99.90;;;;;;4953530;28;20051;-74
2024/03/23 03:39:55;;;;;;;9.43;4.00;;;11.00;99.90;;;;;;5010302;28;20129;-74
2024/03/23 03:42:41;;;;;;;9.48;3.92;;;11.10;99.90;;;;;;4968453;28;20039;-72
2024/03/23 03:45:27;;;;;;;12.25;4.60;;;11.00;99.90;;;;;;4971926;28;20402;-73
2024/03/23 03:48:13;;;;;;;10.52;4.05;;;11.00;99.90;;;;;;4960031;28;20051;-73
2024/03/23 03:50:59;;;;;;;10.43;3.72;;;11.00;99.90;;;;;;4960867;28;20459;-72
2024/03/23 03:53:45;;;;;;;11.00;4.35;;;10.90;99.90;;;;;;5056460;28;20119;-73
2024/03/23 03:56:31;;;;;;;13.75;4.60;;;10.80;99.90;;;;;;5070569;28;20044;-73
2024/03/23 03:59:17;;;;;;;12.35;3.88;;;10.80;99.90;;;;;;4973857;28;20035;-72
2024/03/23 04:02:03;;;;;;;13.57;4.47;;;10.80;99.90;;;;;;4970500;28;20512;-72
2024/03/23 04:04:49;;;;;;;11.90;3.30;;;10.80;99.90;;;;;;5072872;28;20519;-72
2024/03/23 04:07:35;;;;;;;11.02;3.33;;;10.80;99.90;;;;;;5011610;28;20092;-72
2024/03/23 04:10:21;;;;;;;6.68;3.33;;;10.70;99.90;;;;;;4952149;28;20105;-72
2024/03/23 04:13:08;;;;;;;11.07;3.88;;;10.60;99.90;;;;;;4954826;28;20051;-72
2024/03/23 04:15:55;;;;;;;7.75;3.55;;;10.60;99.90;;;;;;4972137;28;20047;-72
2024/03/23 04:18:41;;;;;;;9.77;3.47;;;10.60;99.90;;;;;;4972231;28;20051;-73
2024/03/23 04:21:27;;;;;;;13.35;3.13;;;10.50;99.90;;;;;;4971591;28;20041;-73
2024/03/23 04:24:15;;;;;;;8.38;3.55;;;10.50;99.90;;;;;;4964791;28;20093;-73
2024/03/23 04:27:01;;;;;;;7.20;3.03;;;10.50;99.90;;;;;;4963021;28;20050;-73
2024/03/23 04:29:50;;;;;;;10.43;2.67;;;10.50;99.90;;;;;;4962458;28;20228;-73
2024/03/23 04:32:37;;;;;;;8.82;2.67;;;10.40;99.90;;;;;;4962910;28;20494;-73
2024/03/23 04:35:25;;;;;;;6.65;2.08;;;10.40;99.90;;;;;;4967497;28;20062;-73
2024/03/23 04:38:11;;;;;;;7.00;2.83;;;10.30;99.90;;;;;;4971388;28;20054;-74
2024/03/23 04:40:58;;;;;;;10.25;2.97;;;10.30;99.90;;;;;;4963427;28;20071;-73
2024/03/23 04:43:44;;;;;;;6.85;2.00;;;10.30;99.90;;;;;;4958270;28;20052;-73
2024/03/23 04:46:30;;;;;;;4.93;2.10;;;10.20;99.90;;;;;;4955638;28;20123;-75
2024/03/23 04:49:15;;;;;;;8.15;2.25;;;10.10;99.90;;;;;;4962956;28;20046;-73
2024/03/23 04:52:02;;;;;;;6.05;2.30;;;10.10;99.90;;;;;;4962307;28;20055;-73
2024/03/23 04:54:48;;;;;;;4.85;2.30;;;10.10;99.90;;;;;;4973518;28;20405;-73
2024/03/23 04:57:34;;;;;;;9.77;2.60;;;10.00;99.90;;;;;;5026828;28;20102;-72
2024/03/23 05:00:20;;;;;;;3.58;1.83;;;10.00;99.90;;;;;;4956675;28;20048;-73
2024/03/23 05:03:06;;;;;;;4.95;1.83;;;10.00;99.90;;;;;;4960561;28;20391;-73
2024/03/23 05:05:53;;;;;;;3.55;2.13;;;9.90;99.90;;;;;;5038449;28;20056;-74
2024/03/23 05:08:38;;;;;;;6.22;2.10;;;9.90;99.90;;;;;;4967628;28;20495;-74
2024/03/23 05:11:24;;;;;;;7.10;2.20;;;9.80;99.90;;;;;;4953162;28;20047;-74
2024/03/23 05:14:13;;;;;;;6.38;2.00;;;9.80;99.90;;;;;;4951094;28;20510;-73
2024/03/23 05:16:59;;;;;;;6.53;2.67;;;9.80;99.90;;;;;;4952296;28;20085;-73
2024/03/23 05:19:45;;;;;;;3.97;2.20;;;9.80;99.90;;;;;;5062385;28;20040;-73
2024/03/23 05:22:31;;;;;;;6.25;2.95;;;9.90;99.90;;;;;;4996743;28;20046;-74
2024/03/23 05:25:16;;;;;;;4.50;1.92;;;9.90;99.90;;;;;;4954824;28;20188;-73
2024/03/23 05:28:02;;;;;;;5.72;2.00;;;9.90;99.90;;;;;;4970254;28;20038;-72
2024/03/23 05:30:56;;;;;;;6.05;1.85;;;9.90;99.90;;;;;;4954692;28;20055;-73
2024/03/23 05:33:42;;;;;;;5.70;1.80;;;9.90;99.90;;;;;;4962866;28;20046;-73
2024/03/23 05:36:28;;;;;;;6.35;1.90;;;9.90;99.90;;;;;;4959368;28;20050;-71
2024/03/23 05:39:16;;;;;;;6.43;2.60;;;9.90;99.90;;;;;;4989509;28;20043;-71
2024/03/23 05:42:02;;;;;;;6.70;2.00;;;9.90;99.90;;;;;;5071125;28;20123;-73
2024/03/23 05:44:48;;;;;;;6.78;2.10;;;10.00;99.90;;;;;;4961581;28;20043;-73
2024/03/23 05:47:34;;;;;;;7.43;2.20;;;9.90;99.90;;;;;;4960401;28;20519;-73
2024/03/23 05:50:20;;;;;;;6.43;2.30;;;9.90;99.90;;;;;;5048901;28;20049;-73
2024/03/23 05:53:06;;;;;;;8.60;2.78;;;9.80;99.90;;;;;;5073913;28;20083;-73
2024/03/23 05:56:00;;;;;;;9.80;2.95;;;9.80;99.90;;;;;;5000001;28;20058;-72
2024/03/23 05:58:46;;;;;;;7.63;2.75;;;9.80;99.90;;;;;;4967001;28;20051;-73
2024/03/23 06:01:32;;;;;;;8.05;2.53;;;9.80;99.90;;;;;;5023710;28;20052;-72
2024/03/23 06:04:18;;;;;;;10.02;2.65;;;9.80;99.90;;;;;;5072373;28;20053;-72
2024/03/23 06:07:13;;;;;;;6.53;2.72;;;9.80;99.90;;;;;;5007341;28;20128;-72
2024/03/23 06:09:59;;;;;;;6.75;3.08;;;9.80;99.90;;;;;;4951664;28;20089;-72
2024/03/23 06:12:49;;;;;;;8.13;3.08;;;9.80;99.90;;;;;;5021143;28;20039;-72
2024/03/23 06:15:37;;;;;;;7.82;3.13;;;9.80;99.90;;;;;;4966016;28;20391;-72
2024/03/23 06:18:23;;;;;;;9.60;3.85;;;9.80;99.90;;;;;;4957564;28;20039;-72
2024/03/23 06:21:13;;;;;;;8.35;4.05;;;9.80;99.90;;;;;;4976232;28;20043;-72
2024/03/23 06:23:59;;;;;;;8.15;3.42;;;9.70;99.90;;;;;;5021949;28;20537;-72
2024/03/23 06:26:45;;;;;;;10.48;4.03;;;9.70;99.90;;;;;;4974614;28;20098;-71
2024/03/23 06:29:32;;;;;;;10.45;3.78;;;9.70;99.90;;;;;;4991903;28;20084;-73
2024/03/23 06:32:18;;;;;;;9.38;3.45;;;9.60;99.90;;;;;;4972642;28;20077;-72
2024/03/23 06:35:08;;;;;;;8.25;4.03;;;9.60;99.90;;;;;;4966854;29;20035;-73
2024/03/23 06:37:54;;;;;;;7.68;3.67;;;9.60;99.90;;;;;;4952222;28;20035;-72
2024/03/23 06:40:40;;;;;;;9.48;3.97;;;9.60;99.90;;;;;;4972077;28;20131;-72
2024/03/23 06:43:25;;;;;;;6.30;2.80;;;9.60;99.90;;;;;;4969465;28;20039;-74
2024/03/23 06:46:11;;;;;;;7.07;3.30;;;9.50;99.90;;;;;;5069785;28;20044;-73
2024/03/23 06:48:57;;;;;;;5.22;2.80;;;9.50;99.90;;;;;;5036080;28;20053;-73
2024/03/23 06:51:45;;;;;;;7.32;2.47;;;9.50;99.90;;;;;;4949592;28;20085;-74
2024/03/23 06:54:31;;;;;;;11.82;3.15;;;9.50;99.90;;;;;;4991022;28;20064;-74
2024/03/23 06:57:18;;;;;;;8.00;3.17;;;9.50;99.90;;;;;;5060525;28;20423;-75
2024/03/23 07:00:09;;;;;;;5.82;2.30;;;9.40;99.90;;;;;;4965983;28;20046;-71
2024/03/23 07:02:55;;;;;;;6.10;2.55;;;9.40;99.90;;;;;;4966651;28;20050;-76
2024/03/23 07:05:42;;;;;;;9.30;3.28;;;9.50;99.90;;;;;;4962694;28;20051;-74
2024/03/23 07:08:28;;;;;;;6.40;2.25;;;9.40;99.90;;;;;;4968451;28;20057;-72
2024/03/23 07:11:21;;;;;;;8.13;2.40;;;9.50;99.90;;;;;;4963680;28;20491;-77
2024/03/23 07:14:07;;;;;;;5.70;2.17;;;9.50;99.90;;;;;;4951382;28;20130;-72
2024/03/23 07:16:53;;;;;;;7.32;3.10;;;9.50;99.90;;;;;;4968488;28;20415;-70
2024/03/23 07:19:39;;;;;;;5.90;2.42;;;9.50;99.90;;;;;;4959437;28;20039;-71
2024/03/23 07:22:25;;;;;;;5.40;2.67;;;9.50;99.90;;;;;;4954530;28;20043;-71
2024/03/23 07:25:11;;;;;;;6.68;2.78;;;9.50;99.90;;;;;;4961900;28;20550;-70
2024/03/23 07:27:58;;;;;;;5.47;2.70;;;9.50;99.90;;;;;;4970122;28;20073;-70
2024/03/23 07:30:44;;;;;;;4.20;2.95;;;9.50;99.90;;;;;;4968725;28;20050;-71
2024/03/23 07:33:30;;;;;;;7.65;2.65;;;9.50;99.90;;;;;;4961579;28;20509;-70
2024/03/23 07:36:16;;;;;;;11.77;3.50;;;9.50;99.90;;;;;;4979308;28;20089;-70
2024/03/23 07:39:03;;;;;;;6.72;3.08;;;9.50;99.90;;;;;;4972874;28;20050;-70
2024/03/23 07:41:49;;;;;;;7.93;2.50;;;9.50;99.90;;;;;;4970835;28;20073;-70
2024/03/23 07:44:35;;;;;;;5.88;2.65;;;9.40;99.90;;;;;;4951590;28;20046;-69
2024/03/23 07:47:21;;;;;;;10.23;3.42;;;9.50;99.90;;;;;;4995948;28;20049;-70
2024/03/23 07:50:07;;;;;;;4.60;2.65;;;9.50;99.90;;;;;;4980702;28;20406;-70
2024/03/23 07:52:53;;;;;;;6.93;2.50;;;9.60;99.90;;;;;;4971751;28;20041;-71
2024/03/23 07:55:39;;;;;;;10.25;3.83;;;9.60;99.90;;;;;;4954567;28;20050;-70
2024/03/23 07:58:26;;;;;;;4.85;2.70;;;9.60;99.90;;;;;;4977068;28;20051;-70
2024/03/23 08:01:17;;;;;;;7.78;2.97;;;9.60;99.90;;;;;;4963681;28;20482;-69
2024/03/23 08:04:03;;;;;;;8.32;2.75;;;9.50;99.90;;;;;;5022073;28;20032;-70
2024/03/23 08:06:48;;;;;;;7.53;3.10;;;9.50;99.90;;;;;;4952532;28;20134;-70
2024/03/23 08:09:34;;;;;;;7.78;2.58;;;9.50;99.90;;;;;;4982667;28;20070;-70
2024/03/23 08:12:20;;;;;;;9.80;3.25;;;9.50;99.90;;;;;;4971896;28;20066;-69
2024/03/23 08:15:06;;;;;;;4.57;2.38;;;9.60;99.90;;;;;;4974413;28;20433;-70
2024/03/23 08:17:52;;;;;;;8.68;3.10;;;9.60;99.90;;;;;;4957707;28;20078;-70
2024/03/23 08:20:38;;;;;;;10.57;3.60;;;9.60;99.90;;;;;;4977301;28;20105;-70
2024/03/23 08:23:29;;;;;;;6.28;1.90;;;9.50;99.90;;;;;;4957184;28;20043;-71
2024/03/23 08:26:16;;;;;;;5.78;2.35;;;9.50;99.90;;;;;;4960177;28;20043;-70
2024/03/23 08:29:02;;;;;;;4.90;2.05;;;9.30;99.90;;;;;;5011446;28;20076;-70
2024/03/23 08:31:48;;;;;;;6.00;2.25;;;9.20;99.90;;;;;;4964095;28;20490;-69
2024/03/23 08:34:33;;;;;;;4.65;1.77;;;9.10;99.90;;;;;;5005853;28;20476;-68
2024/03/23 08:37:19;;;;;;;4.70;1.60;;;9.10;99.90;;;;;;5024889;28;20040;-69
2024/03/23 08:40:06;;;;;;;5.82;1.70;;;9.00;99.90;;;;;;4955989;28;20063;-69
2024/03/23 08:42:52;;;;;;;7.07;2.13;;;9.00;99.90;;;;;;4959964;28;20036;-69
2024/03/23 08:45:38;;;;;;;9.90;2.53;;;8.90;99.90;;;;;;4964993;28;20055;-69
2024/03/23 08:48:24;;;;;;;5.35;2.30;;;9.00;99.90;;;;;;4965067;28;20303;-70
2024/03/23 08:51:12;;;;;;;6.63;3.10;;;8.80;99.90;;;;;;4960911;28;20438;-69
2024/03/23 08:53:57;;;;;;;5.88;1.88;;;8.80;99.90;;;;;;4955762;28;20046;-68
2024/03/23 08:56:43;;;;;;;6.90;2.95;;;8.70;99.90;;;;;;4963501;28;20039;-68
2024/03/23 08:59:29;;;;;;;7.28;2.58;;;8.60;99.90;;;;;;4952576;28;20039;-68
2024/03/23 09:02:15;;;;;;;5.43;2.15;;;8.60;99.90;;;;;;4996257;28;20082;-68
2024/03/23 09:05:04;;;;;;;5.18;3.05;;;8.40;99.90;;;;;;4982948;28;20501;-68
2024/03/23 09:07:50;;;;;;;8.50;3.15;;;8.30;99.90;;;;;;4966726;28;20032;-68
2024/03/23 09:10:39;;;;;;;8.60;3.50;;;8.30;99.90;;;;;;4970577;28;20053;-68
2024/03/23 09:13:25;;;;;;;6.20;2.63;;;8.20;99.90;;;;;;4968242;28;20059;-68
2024/03/23 09:16:11;;;;;;;4.45;2.40;;;8.10;99.90;;;;;;4962720;28;20102;-69
2024/03/23 09:18:57;;;;;;;7.03;2.85;;;8.10;99.90;;;;;;4958176;28;20191;-68
2024/03/23 09:21:43;;;;;;;4.28;2.30;;;8.10;99.90;;;;;;4970439;28;20046;-68
2024/03/23 09:24:29;;;;;;;5.97;2.63;;;8.10;99.90;;;;;;4976783;28;20043;-69
2024/03/23 09:27:15;;;;;;;3.35;1.55;;;8.00;99.90;;;;;;4964223;28;20097;-69
2024/03/23 09:30:01;;;;;;;3.60;2.00;;;7.90;99.90;;;;;;4937032;28;20078;-68
2024/03/23 09:32:47;;;;;;;3.90;2.15;;;7.70;99.90;;;;;;4946606;28;20055;-68
2024/03/23 09:35:37;;;;;;;5.38;1.90;;;7.70;99.90;;;;;;4969481;28;20047;-68
2024/03/23 09:38:23;;;;;;;7.55;1.85;;;7.70;99.90;;;;;;5003513;28;20119;-68
2024/03/23 09:41:09;;;;;;;4.72;2.33;;;7.70;99.90;;;;;;4997625;28;20054;-67
2024/03/23 09:43:55;;;;;;;7.78;3.10;;;7.60;99.90;;;;;;4975926;28;20435;-69
2024/03/23 09:46:41;;;;;;;5.82;2.38;;;7.50;99.90;;;;;;4979326;28;20039;-69
2024/03/23 09:49:27;;;;;;;4.43;2.30;;;7.60;99.90;;;;;;4974879;28;20100;-68
2024/03/23 09:52:13;;;;;;;5.70;2.42;;;7.50;99.90;;;;;;5073442;28;20599;-69
2024/03/23 09:54:59;;;;;;;4.90;2.38;;;7.50;99.90;;;;;;4955331;28;20047;-69
2024/03/23 09:57:45;;;;;;;6.45;2.20;;;7.50;99.90;;;;;;4968438;28;20038;-67
2024/03/23 10:00:37;;;;;;;10.25;2.97;;;7.50;99.90;;;;;;5011053;28;20043;-68
2024/03/23 10:03:23;;;;;;;7.25;2.72;;;7.50;99.90;;;;;;4964076;28;20099;-68
2024/03/23 10:06:09;;;;;;;6.13;2.10;;;7.50;99.90;;;;;;4953892;28;20506;-68
2024/03/23 10:08:55;;;;;;;7.57;2.30;;;7.40;99.90;;;;;;4957356;28;20074;-69
2024/03/23 10:11:44;;;;;;;6.18;2.20;;;7.30;99.90;;;;;;4973288;28;20494;-68
2024/03/23 10:14:30;;;;;;;5.60;2.70;;;7.30;99.90;;;;;;4982998;28;20036;-69
2024/03/23 10:17:18;;;;;;;8.52;2.35;;;7.30;99.90;;;;;;4968433;28;20494;-69
2024/03/23 10:20:10;;;;;;;5.10;2.58;;;7.30;99.90;;;;;;4946475;28;20047;-69
2024/03/23 10:22:56;;;;;;;4.55;2.25;;;7.30;99.90;;;;;;4955090;28;20449;-69
2024/03/23 10:25:42;;;;;;;6.10;2.40;;;7.40;99.90;;;;;;5005014;28;20483;-69
2024/03/23 10:28:28;;;;;;;8.25;2.05;;;7.40;99.90;;;;;;4969227;28;20496;-69
2024/03/23 10:31:14;;;;;;;8.25;3.03;;;7.50;99.90;;;;;;4954472;28;20506;-68
2024/03/23 10:34:00;;;;;;;8.95;1.92;;;7.50;99.90;;;;;;4960773;28;20787;-69
2024/03/23 10:36:47;;;;;;;7.78;2.90;;;7.60;99.90;;;;;;5025761;28;20130;-68
2024/03/23 10:39:43;;;;;;;8.10;2.83;;;7.60;99.90;;;;;;4961181;28;20051;-66
2024/03/23 10:42:29;;;;;;;6.68;2.10;;;7.60;99.90;;;;;;4953625;28;20104;-66
2024/03/23 10:45:15;;;;;;;6.85;2.58;;;7.60;99.90;;;;;;5013895;28;20046;-66
2024/03/23 10:48:02;;;;;;;9.35;3.22;;;7.60;99.90;;;;;;5025123;28;20090;-66
2024/03/23 10:50:48;;;;;;;7.50;2.72;;;7.70;99.90;;;;;;5070998;28;20131;-65
2024/03/23 10:53:35;;;;;;;7.07;2.60;;;7.80;99.90;;;;;;5011312;28;20039;-67
2024/03/23 10:56:22;;;;;;;6.53;2.42;;;7.80;99.90;;;;;;4976313;28;20057;-66
2024/03/23 10:59:08;;;;;;;5.93;2.25;;;7.80;99.90;;;;;;4959687;28;20062;-67
2024/03/23 11:01:56;;;;;;;6.72;2.42;;;7.90;99.90;;;;;;4991240;28;20609;-69
2024/03/23 11:04:43;;;;;;;14.07;3.30;;;8.00;99.90;;;;;;4953930;28;20112;-66
2024/03/23 11:07:31;;;;;;;5.85;2.47;;;8.00;99.90;;;;;;4975336;28;20038;-76
2024/03/23 11:10:29;;;;;;;7.68;2.65;;;8.00;99.90;;;;;;4955022;28;20047;-67
2024/03/23 11:13:24;;;;;;;6.03;3.00;;;8.10;99.90;;;;;;4950653;28;20044;-67
2024/03/23 11:16:23;;;;;;;5.72;2.20;;;8.20;99.90;;;;;;4950918;29;20054;-67
2024/03/23 11:19:36;;;;;;;5.15;2.20;;;8.30;99.90;;;;;;5005246;28;20066;-66
2024/03/23 11:22:42;;;;;;;10.32;2.67;;;8.30;99.90;;;;;;4988112;28;20043;-67
2024/03/23 11:25:29;;;;;;;8.25;2.58;;;8.40;99.90;;;;;;4961297;28;20583;-67
2024/03/23 11:28:15;;;;;;;7.32;3.38;;;8.50;99.90;;;;;;4974793;28;20422;-67
2024/03/23 11:31:01;;;;;;;8.80;3.22;;;8.60;99.90;;;;;;4963265;28;20073;-68
2024/03/23 11:33:47;;;;;;;6.78;3.05;;;8.70;99.90;;;;;;4964079;28;20039;-68
2024/03/23 11:36:33;;;;;;;6.18;2.95;;;8.80;99.90;;;;;;4985381;28;20055;-68
2024/03/23 11:39:20;;;;;;;8.00;3.00;;;8.80;99.90;;;;;;5012316;28;20037;-68
2024/03/23 11:42:06;;;;;;;7.38;3.95;;;8.90;99.90;;;;;;4964313;28;20042;-68
2024/03/23 11:44:53;;;;;;;5.18;2.85;;;8.90;99.90;;;;;;4972163;28;20043;-69
2024/03/23 11:47:39;;;;;;;8.38;3.03;;;9.10;99.90;;;;;;4953933;28;20047;-68
2024/03/23 11:50:25;;;;;;;9.73;3.22;;;9.20;99.90;;;;;;4953003;28;20862;-68
2024/03/23 11:53:23;;;;;;;7.68;3.20;;;9.30;99.90;;;;;;4970943;28;20489;-67
2024/03/23 11:56:09;;;;;;;10.43;3.35;;;9.40;99.90;;;;;;4971985;28;20043;-68
2024/03/23 11:58:55;;;;;;;8.80;3.30;;;9.50;99.90;;;;;;4956184;28;20047;-68
2024/03/23 12:01:41;;;;;;;5.90;3.28;;;9.60;99.90;;;;;;4961800;28;20040;-68
2024/03/23 12:04:28;;;;;;;5.55;2.53;;;9.60;99.90;;;;;;4961264;28;20055;-68
2024/03/23 12:07:21;;;;;;;6.18;3.28;;;9.70;99.90;;;;;;4971118;28;20039;-68
2024/03/23 12:10:08;;;;;;;9.73;2.78;;;9.90;99.90;;;;;;5008823;28;20052;-69
2024/03/23 12:13:01;;;;;;;6.50;2.08;;;10.00;99.90;;;;;;4959255;28;20488;-68
2024/03/23 12:15:50;;;;;;;8.32;2.92;;;10.00;99.90;;;;;;4953824;28;20047;-69
2024/03/23 12:18:40;;;;;;;7.65;2.70;;;10.10;99.90;;;;;;4971310;28;20070;-68
2024/03/23 12:21:25;;;;;;;4.78;2.33;;;10.10;99.90;;;;;;4966022;28;20055;-69
2024/03/23 12:24:12;;;;;;;9.13;2.78;;;10.20;99.90;;;;;;4964869;28;20125;-68
2024/03/23 12:27:02;;;;;;;9.32;2.85;;;10.20;99.90;;;;;;4981068;28;20051;-68
2024/03/23 12:29:52;;;;;;;6.78;2.50;;;10.20;99.90;;;;;;4971836;28;20125;-70
2024/03/23 12:32:37;;;;;;;10.45;3.58;;;10.20;99.90;;;;;;4963500;28;20051;-68
2024/03/23 12:35:23;;;;;;;6.43;2.30;;;10.20;99.90;;;;;;4952707;28;20086;-68
2024/03/23 12:38:09;;;;;;;9.13;2.58;;;10.30;99.90;;;;;;4955806;28;20130;-68
2024/03/23 12:40:55;;;;;;;6.85;2.20;;;10.30;99.90;;;;;;4999590;28;20044;-69
2024/03/23 12:43:42;;;;;;;5.88;2.85;;;10.40;99.90;;;;;;5004451;28;20535;-69
2024/03/23 12:46:28;;;;;;;5.03;2.60;;;10.50;99.90;;;;;;4966920;28;20136;-68
2024/03/23 12:49:15;;;;;;;4.82;2.70;;;10.60;99.90;;;;;;4970497;28;20108;-68
2024/03/23 12:52:01;;;;;;;7.15;2.50;;;10.60;99.90;;;;;;4981301;28;20062;-68
2024/03/23 12:54:47;;;;;;;7.70;2.47;;;10.80;99.90;;;;;;5008692;28;20039;-68
2024/03/23 12:57:34;;;;;;;5.63;2.10;;;10.70;99.90;;;;;;4958515;28;20471;-68
2024/03/23 13:00:20;;;;;;;4.03;1.83;;;10.80;99.90;;;;;;4965231;28;20050;-69
2024/03/23 13:03:13;;;;;;;6.07;2.28;;;10.80;99.80;;;;;;4953739;28;20039;-68
2024/03/23 13:05:59;;;;;;;3.95;1.90;;;10.80;99.70;;;;;;4961039;28;20734;-69
2024/03/23 13:08:45;;;;;;;3.85;2.13;;;10.90;99.60;;;;;;4961220;28;20082;-68
2024/03/23 13:11:31;;;;;;;4.80;1.83;;;10.90;99.50;;;;;;4970410;28;20421;-69
2024/03/23 13:14:17;;;;;;;5.47;1.70;;;10.90;99.40;;;;;;4964166;28;20489;-69
2024/03/23 13:17:04;;;;;;;4.63;1.40;;;10.90;99.30;;;;;;4960391;28;20048;-69
2024/03/23 13:19:50;;;;;;;5.40;1.92;;;11.00;99.20;;;;;;4938339;28;20081;-70
2024/03/23 13:22:36;;;;;;;3.72;2.00;;;11.00;99.20;;;;;;5036745;28;20119;-69
2024/03/23 13:25:22;;;;;;;4.78;2.10;;;11.10;99.20;;;;;;5073402;28;20127;-70
2024/03/23 13:28:09;;;;;;;7.00;2.55;;;11.10;99.20;;;;;;4943261;28;20046;-70
2024/03/23 13:30:57;;;;;;;5.90;2.15;;;11.20;99.20;;;;;;4968203;28;20082;-69
2024/03/23 13:33:44;;;;;;;5.55;2.03;;;11.40;99.30;;;;;;4968817;28;20042;-68
2024/03/23 13:36:29;;;;;;;5.35;1.92;;;11.40;99.30;;;;;;4958574;28;20047;-70
2024/03/23 13:39:16;;;;;;;3.80;2.15;;;11.60;99.20;;;;;;4944586;28;20084;-69
2024/03/23 13:42:03;;;;;;;4.35;2.33;;;11.60;98.90;;;;;;4970054;28;20047;-69
2024/03/23 13:44:50;;;;;;;6.72;2.90;;;11.70;98.80;;;;;;5062672;28;20051;-69
2024/03/23 13:47:35;;;;;;;6.40;2.50;;;11.80;98.60;;;;;;4951952;28;20074;-69
2024/03/23 13:50:21;;;;;;;6.35;2.50;;;11.80;98.40;;;;;;4939465;29;20050;-70
2024/03/23 13:53:08;;;;;;;5.15;2.22;;;11.90;98.40;;;;;;5071542;28;20060;-68
2024/03/23 13:55:54;;;;;;;8.63;2.80;;;11.90;98.20;;;;;;4981456;28;20047;-70
2024/03/23 13:58:45;;;;;;;5.80;2.78;;;12.00;98.10;;;;;;4951373;28;20071;-69
2024/03/23 14:01:31;;;;;;;4.57;2.30;;;12.10;98.00;;;;;;4994722;28;20133;-70
2024/03/23 14:04:20;;;;;;;5.57;2.55;;;12.20;98.00;;;;;;4968058;28;20612;-68
2024/03/23 14:07:07;;;;;;;7.78;3.20;;;12.30;97.90;;;;;;4979361;28;20419;-68
2024/03/23 14:09:55;;;;;;;11.52;3.08;;;12.40;97.70;;;;;;4985157;28;20035;-68
2024/03/23 14:12:41;;;;;;;8.48;2.72;;;12.40;97.60;;;;;;4962924;28;20158;-68
2024/03/23 14:15:27;;;;;;;8.77;3.42;;;12.50;97.50;;;;;;4969519;28;20045;-68
2024/03/23 14:18:13;;;;;;;5.78;2.50;;;12.60;97.60;;;;;;4975308;28;20045;-69
2024/03/23 14:21:00;;;;;;;10.85;3.65;;;12.70;97.50;;;;;;4977215;28;20043;-68
2024/03/23 14:23:50;;;;;;;6.32;2.75;;;12.80;97.30;;;;;;4950553;29;20070;-70
2024/03/23 14:26:35;;;;;;;8.30;3.60;;;12.80;97.20;;;;;;4991096;28;20178;-69
2024/03/23 14:29:21;;;;;;;6.45;2.72;;;12.70;97.10;;;;;;4971713;28;20490;-69
2024/03/23 14:32:07;;;;;;;12.38;3.53;;;12.70;96.90;;;;;;4959523;28;20410;-68